sensor_id;sensor_type;location;lat;lon;timestamp;pressure;altitude;pressure_sealevel;temperature;humidity
18850;BME280;4989;48.772;9.154;2022-11-03T00:00:36;98450.06;;;12.30;100.00
18850;BME280;4989;48.772;9.154;2022-11-03T00:05:38;98451.19;;;12.13;100.00
18850;BME280;4989;48.772;9.154;2022-11-03T00:11:17;98457.31;;;11.77;100.00
18850;BME280;4989;48.772;9.154;2022-11-03T00:16:20;98442.66;;;11.71;100.00
18850;BME280;4989;48.772;9.154;2022-11-03T00:21:22;98439.66;;;11.42;100.00
18850;BME280;4989;48.772;9.154;2022-11-03T00:26:27;98435.50;;;11.34;100.00
18850;BME280;4989;48.772;9.154;2022-11-03T00:31:32;98440.06;;;11.40;100.00
18850;BME280;4989;48.772;9.154;2022-11-03T00:36:39;98427.41;;;11.54;100.00
18850;BME280;4989;48.772;9.154;2022-11-03T00:41:42;98421.72;;;11.68;100.00
18850;BME280;4989;48.772;9.154;2022-11-03T00:46:44;98404.00;;;11.36;100.00
18850;BME280;4989;48.772;9.154;2022-11-03T00:51:46;98402.13;;;10.86;100.00
18850;BME280;4989;48.772;9.154;2022-11-03T00:56:49;98396.63;;;10.90;100.00
18850;BME280;4989;48.772;9.154;2022-11-03T01:01:51;98396.78;;;10.79;100.00
18850;BME280;4989;48.772;9.154;2022-11-03T01:06:56;98394.13;;;10.48;100.00
18850;BME280;4989;48.772;9.154;2022-11-03T01:12:02;98379.22;;;11.07;100.00
18850;BME280;4989;48.772;9.154;2022-11-03T01:17:08;98375.31;;;11.52;100.00
18850;BME280;4989;48.772;9.154;2022-11-03T01:22:12;98366.06;;;11.89;100.00
18850;BME280;4989;48.772;9.154;2022-11-03T01:27:17;98369.34;;;11.80;100.00
18850;BME280;4989;48.772;9.154;2022-11-03T01:32:19;98362.75;;;11.98;100.00
18850;BME280;4989;48.772;9.154;2022-11-03T01:37:24;98351.38;;;11.43;100.00
18850;BME280;4989;48.772;9.154;2022-11-03T01:42:26;98345.66;;;11.57;100.00
18850;BME280;4989;48.772;9.154;2022-11-03T01:47:31;98335.94;;;11.36;100.00
18850;BME280;4989;48.772;9.154;2022-11-03T01:57:47;98328.09;;;10.75;100.00
18850;BME280;4989;48.772;9.154;2022-11-03T02:02:51;98316.59;;;10.40;100.00
18850;BME280;4989;48.772;9.154;2022-11-03T02:08:07;98316.06;;;10.22;100.00
18850;BME280;4989;48.772;9.154;2022-11-03T02:13:30;98309.22;;;10.14;100.00
18850;BME280;4989;48.772;9.154;2022-11-03T02:18:33;98312.34;;;10.12;100.00
18850;BME280;4989;48.772;9.154;2022-11-03T02:23:48;98300.50;;;10.26;100.00
18850;BME280;4989;48.772;9.154;2022-11-03T02:28:54;98290.25;;;10.37;100.00
18850;BME280;4989;48.772;9.154;2022-11-03T02:34:07;98293.94;;;10.50;100.00
18850;BME280;4989;48.772;9.154;2022-11-03T02:39:20;98276.69;;;10.61;100.00
18850;BME280;4989;48.772;9.154;2022-11-03T02:44:24;98279.34;;;11.28;100.00
18850;BME280;4989;48.772;9.154;2022-11-03T02:49:28;98276.38;;;11.42;100.00
18850;BME280;4989;48.772;9.154;2022-11-03T02:54:42;98261.63;;;11.19;100.00
18850;BME280;4989;48.772;9.154;2022-11-03T02:59:56;98252.97;;;10.85;100.00
18850;BME280;4989;48.772;9.154;2022-11-03T03:05:02;98245.66;;;10.58;100.00
18850;BME280;4989;48.772;9.154;2022-11-03T03:10:07;98238.63;;;10.37;100.00
18850;BME280;4989;48.772;9.154;2022-11-03T03:15:11;98231.81;;;10.02;100.00
18850;BME280;4989;48.772;9.154;2022-11-03T03:20:33;98229.59;;;9.93;100.00
18850;BME280;4989;48.772;9.154;2022-11-03T03:25:42;98218.38;;;9.91;100.00
18850;BME280;4989;48.772;9.154;2022-11-03T03:30:48;98207.56;;;10.15;100.00
18850;BME280;4989;48.772;9.154;2022-11-03T03:35:52;98206.03;;;10.61;100.00
18850;BME280;4989;48.772;9.154;2022-11-03T03:40:57;98195.72;;;10.72;100.00
18850;BME280;4989;48.772;9.154;2022-11-03T03:46:09;98187.16;;;10.30;100.00
18850;BME280;4989;48.772;9.154;2022-11-03T03:51:14;98183.50;;;10.13;100.00
18850;BME280;4989;48.772;9.154;2022-11-03T03:56:21;98168.50;;;10.32;100.00
18850;BME280;4989;48.772;9.154;2022-11-03T04:01:25;98169.94;;;10.37;100.00
18850;BME280;4989;48.772;9.154;2022-11-03T04:06:27;98160.19;;;10.16;100.00
18850;BME280;4989;48.772;9.154;2022-11-03T04:11:29;98145.09;;;10.38;100.00
18850;BME280;4989;48.772;9.154;2022-11-03T04:16:50;98130.69;;;10.61;100.00
18850;BME280;4989;48.772;9.154;2022-11-03T04:22:11;98140.53;;;10.75;100.00
18850;BME280;4989;48.772;9.154;2022-11-03T04:32:32;98133.09;;;10.12;100.00
18850;BME280;4989;48.772;9.154;2022-11-03T04:37:35;98127.25;;;10.37;100.00
18850;BME280;4989;48.772;9.154;2022-11-03T04:42:39;98118.53;;;10.02;100.00
18850;BME280;4989;48.772;9.154;2022-11-03T04:47:42;98113.94;;;9.99;100.00
18850;BME280;4989;48.772;9.154;2022-11-03T04:52:46;98097.53;;;9.59;100.00
18850;BME280;4989;48.772;9.154;2022-11-03T04:57:56;98092.53;;;10.01;100.00
18850;BME280;4989;48.772;9.154;2022-11-03T05:02:59;98098.78;;;10.22;100.00
18850;BME280;4989;48.772;9.154;2022-11-03T05:08:01;98094.19;;;9.95;100.00
18850;BME280;4989;48.772;9.154;2022-11-03T05:13:14;98082.47;;;9.78;100.00
18850;BME280;4989;48.772;9.154;2022-11-03T05:18:26;98074.84;;;10.17;100.00
18850;BME280;4989;48.772;9.154;2022-11-03T05:23:38;98068.66;;;10.36;100.00
18850;BME280;4989;48.772;9.154;2022-11-03T05:28:50;98059.09;;;10.08;100.00
18850;BME280;4989;48.772;9.154;2022-11-03T05:33:56;98051.44;;;10.23;100.00
18850;BME280;4989;48.772;9.154;2022-11-03T05:39:25;98047.69;;;10.57;100.00
18850;BME280;4989;48.772;9.154;2022-11-03T05:44:38;98039.50;;;9.97;100.00
18850;BME280;4989;48.772;9.154;2022-11-03T05:49:40;98029.69;;;9.59;100.00
18850;BME280;4989;48.772;9.154;2022-11-03T05:54:43;98030.53;;;9.76;100.00
18850;BME280;4989;48.772;9.154;2022-11-03T05:59:47;98028.06;;;10.29;100.00
18850;BME280;4989;48.772;9.154;2022-11-03T06:04:50;98028.78;;;10.09;100.00
18850;BME280;4989;48.772;9.154;2022-11-03T06:09:53;98019.69;;;10.20;100.00
18850;BME280;4989;48.772;9.154;2022-11-03T06:14:56;98017.63;;;9.84;100.00
18850;BME280;4989;48.772;9.154;2022-11-03T06:19:59;97999.09;;;9.79;100.00
18850;BME280;4989;48.772;9.154;2022-11-03T06:30:33;97984.97;;;10.07;100.00
18850;BME280;4989;48.772;9.154;2022-11-03T06:35:37;97982.38;;;9.60;100.00
18850;BME280;4989;48.772;9.154;2022-11-03T06:40:39;97990.25;;;9.04;100.00
18850;BME280;4989;48.772;9.154;2022-11-03T06:45:49;97997.44;;;8.91;100.00
18850;BME280;4989;48.772;9.154;2022-11-03T06:50:53;97993.69;;;9.08;100.00
18850;BME280;4989;48.772;9.154;2022-11-03T06:55:56;97988.25;;;9.55;100.00
18850;BME280;4989;48.772;9.154;2022-11-03T07:01:02;97984.19;;;9.67;100.00
18850;BME280;4989;48.772;9.154;2022-11-03T07:06:24;97978.00;;;9.67;100.00
18850;BME280;4989;48.772;9.154;2022-11-03T07:11:42;97981.47;;;9.44;100.00
18850;BME280;4989;48.772;9.154;2022-11-03T07:16:51;97961.78;;;9.63;100.00
18850;BME280;4989;48.772;9.154;2022-11-03T07:22:01;97956.28;;;9.67;100.00
18850;BME280;4989;48.772;9.154;2022-11-03T07:32:53;97952.84;;;9.19;100.00
18850;BME280;4989;48.772;9.154;2022-11-03T07:38:00;97949.00;;;9.40;100.00
18850;BME280;4989;48.772;9.154;2022-11-03T07:53:46;97932.69;;;9.20;100.00
18850;BME280;4989;48.772;9.154;2022-11-03T07:58:53;97932.56;;;9.27;100.00
18850;BME280;4989;48.772;9.154;2022-11-03T08:04:03;97909.03;;;9.64;100.00
18850;BME280;4989;48.772;9.154;2022-11-03T08:09:07;97904.66;;;9.90;100.00
18850;BME280;4989;48.772;9.154;2022-11-03T08:14:09;97893.44;;;10.08;100.00
18850;BME280;4989;48.772;9.154;2022-11-03T08:19:11;97881.09;;;10.03;100.00
18850;BME280;4989;48.772;9.154;2022-11-03T08:24:14;97867.97;;;10.02;100.00
18850;BME280;4989;48.772;9.154;2022-11-03T08:29:16;97858.88;;;10.28;100.00
18850;BME280;4989;48.772;9.154;2022-11-03T08:34:19;97860.50;;;10.59;100.00
18850;BME280;4989;48.772;9.154;2022-11-03T08:39:21;97848.13;;;10.58;100.00
18850;BME280;4989;48.772;9.154;2022-11-03T08:44:24;97840.22;;;10.63;100.00
18850;BME280;4989;48.772;9.154;2022-11-03T08:49:26;97851.09;;;10.96;100.00
18850;BME280;4989;48.772;9.154;2022-11-03T08:54:28;97831.81;;;10.90;100.00
18850;BME280;4989;48.772;9.154;2022-11-03T08:59:31;97824.03;;;11.05;100.00
18850;BME280;4989;48.772;9.154;2022-11-03T09:04:33;97831.16;;;11.15;100.00
18850;BME280;4989;48.772;9.154;2022-11-03T09:09:36;97823.72;;;11.32;100.00
18850;BME280;4989;48.772;9.154;2022-11-03T09:14:58;97819.03;;;11.33;100.00
18850;BME280;4989;48.772;9.154;2022-11-03T09:20:01;97813.28;;;11.43;98.92
18850;BME280;4989;48.772;9.154;2022-11-03T09:25:04;97813.41;;;11.53;98.72
18850;BME280;4989;48.772;9.154;2022-11-03T09:30:07;97808.78;;;11.66;97.55
18850;BME280;4989;48.772;9.154;2022-11-03T09:35:15;97805.13;;;11.85;96.75
18850;BME280;4989;48.772;9.154;2022-11-03T09:40:18;97802.97;;;12.06;96.68
18850;BME280;4989;48.772;9.154;2022-11-03T09:45:22;97795.78;;;12.12;97.17
18850;BME280;4989;48.772;9.154;2022-11-03T09:50:25;97781.81;;;12.35;96.21
18850;BME280;4989;48.772;9.154;2022-11-03T09:55:27;97768.22;;;12.70;93.05
18850;BME280;4989;48.772;9.154;2022-11-03T10:00:30;97770.63;;;12.68;93.48
18850;BME280;4989;48.772;9.154;2022-11-03T10:05:33;97771.31;;;12.59;92.80
18850;BME280;4989;48.772;9.154;2022-11-03T10:10:35;97747.78;;;12.53;92.90
18850;BME280;4989;48.772;9.154;2022-11-03T10:15:39;97747.28;;;12.67;93.46
18850;BME280;4989;48.772;9.154;2022-11-03T10:20:43;97757.56;;;12.63;94.07
18850;BME280;4989;48.772;9.154;2022-11-03T10:25:46;97752.97;;;12.60;95.59
18850;BME280;4989;48.772;9.154;2022-11-03T10:46:24;97699.59;;;12.50;95.00
18850;BME280;4989;48.772;9.154;2022-11-03T10:51:49;97698.84;;;12.71;93.71
18850;BME280;4989;48.772;9.154;2022-11-03T10:56:52;97693.16;;;12.78;92.88
18850;BME280;4989;48.772;9.154;2022-11-03T11:01:55;97685.16;;;13.06;91.54
18850;BME280;4989;48.772;9.154;2022-11-03T11:06:58;97677.84;;;13.03;91.42
18850;BME280;4989;48.772;9.154;2022-11-03T11:22:39;97640.47;;;13.13;91.90
18850;BME280;4989;48.772;9.154;2022-11-03T11:43:53;97606.84;;;13.47;89.00
18850;BME280;4989;48.772;9.154;2022-11-03T11:49:14;97600.22;;;13.66;87.63
18850;BME280;4989;48.772;9.154;2022-11-03T11:54:19;97587.78;;;13.74;87.24
18850;BME280;4989;48.772;9.154;2022-11-03T11:59:22;97585.66;;;13.79;87.48
18850;BME280;4989;48.772;9.154;2022-11-03T12:04:28;97575.06;;;13.90;86.28
18850;BME280;4989;48.772;9.154;2022-11-03T12:09:33;97560.50;;;13.84;85.83
18850;BME280;4989;48.772;9.154;2022-11-03T12:14:39;97546.25;;;13.89;84.97
18850;BME280;4989;48.772;9.154;2022-11-03T12:19:49;97532.28;;;13.96;84.88
18850;BME280;4989;48.772;9.154;2022-11-03T12:25:48;97521.03;;;14.03;84.29
18850;BME280;4989;48.772;9.154;2022-11-03T12:30:43;97521.50;;;14.02;83.54
18850;BME280;4989;48.772;9.154;2022-11-03T12:35:45;97508.91;;;13.86;85.13
18850;BME280;4989;48.772;9.154;2022-11-03T12:40:48;97500.72;;;13.86;85.88
18850;BME280;4989;48.772;9.154;2022-11-03T12:45:50;97478.69;;;13.89;85.78
18850;BME280;4989;48.772;9.154;2022-11-03T12:50:53;97471.25;;;13.90;86.24
18850;BME280;4989;48.772;9.154;2022-11-03T12:55:56;97464.72;;;14.06;85.93
18850;BME280;4989;48.772;9.154;2022-11-03T13:00:58;97457.91;;;13.92;87.29
18850;BME280;4989;48.772;9.154;2022-11-03T13:06:04;97442.41;;;14.07;87.28
18850;BME280;4989;48.772;9.154;2022-11-03T13:11:07;97433.31;;;14.01;86.77
18850;BME280;4989;48.772;9.154;2022-11-03T13:16:30;97415.22;;;14.04;87.21
18850;BME280;4989;48.772;9.154;2022-11-03T13:21:33;97389.13;;;14.03;87.03
18850;BME280;4989;48.772;9.154;2022-11-03T13:26:36;97380.19;;;13.93;87.95
18850;BME280;4989;48.772;9.154;2022-11-03T13:31:38;97375.03;;;13.95;87.79
18850;BME280;4989;48.772;9.154;2022-11-03T13:36:41;97358.31;;;13.93;88.67
18850;BME280;4989;48.772;9.154;2022-11-03T13:41:43;97343.41;;;14.03;87.16
18850;BME280;4989;48.772;9.154;2022-11-03T13:46:46;97337.34;;;14.08;85.67
18850;BME280;4989;48.772;9.154;2022-11-03T13:51:48;97328.66;;;14.10;85.60
18850;BME280;4989;48.772;9.154;2022-11-03T13:56:53;97315.44;;;14.17;85.97
18850;BME280;4989;48.772;9.154;2022-11-03T14:02:15;97308.38;;;14.35;85.55
18850;BME280;4989;48.772;9.154;2022-11-03T14:07:38;97296.22;;;14.36;85.59
18850;BME280;4989;48.772;9.154;2022-11-03T14:12:41;97278.53;;;14.22;86.38
18850;BME280;4989;48.772;9.154;2022-11-03T14:17:43;97265.50;;;14.17;87.68
18850;BME280;4989;48.772;9.154;2022-11-03T14:22:45;97261.34;;;14.21;87.79
18850;BME280;4989;48.772;9.154;2022-11-03T14:27:48;97265.81;;;14.10;88.40
18850;BME280;4989;48.772;9.154;2022-11-03T14:32:52;97264.44;;;14.14;86.42
18850;BME280;4989;48.772;9.154;2022-11-03T14:38:00;97254.84;;;14.19;85.45
18850;BME280;4989;48.772;9.154;2022-11-03T14:43:03;97247.31;;;14.05;84.68
18850;BME280;4989;48.772;9.154;2022-11-03T14:48:06;97253.03;;;13.83;86.38
18850;BME280;4989;48.772;9.154;2022-11-03T14:53:09;97222.78;;;13.62;88.50
18850;BME280;4989;48.772;9.154;2022-11-03T14:58:11;97204.59;;;13.50;90.37
18850;BME280;4989;48.772;9.154;2022-11-03T15:03:14;97190.66;;;13.48;94.31
18850;BME280;4989;48.772;9.154;2022-11-03T15:08:17;97188.84;;;13.45;90.94
18850;BME280;4989;48.772;9.154;2022-11-03T15:13:20;97186.13;;;13.45;89.80
18850;BME280;4989;48.772;9.154;2022-11-03T15:18:22;97169.41;;;13.52;88.56
18850;BME280;4989;48.772;9.154;2022-11-03T15:23:25;97154.34;;;13.66;89.12
18850;BME280;4989;48.772;9.154;2022-11-03T15:28:47;97144.19;;;13.57;88.27
18850;BME280;4989;48.772;9.154;2022-11-03T15:33:50;97151.78;;;13.62;88.18
18850;BME280;4989;48.772;9.154;2022-11-03T15:38:52;97141.13;;;13.64;87.99
18850;BME280;4989;48.772;9.154;2022-11-03T15:43:55;97136.91;;;13.63;87.79
18850;BME280;4989;48.772;9.154;2022-11-03T15:48:57;97119.94;;;13.59;88.62
18850;BME280;4989;48.772;9.154;2022-11-03T15:53:59;97106.41;;;13.65;88.22
18850;BME280;4989;48.772;9.154;2022-11-03T15:59:03;97088.28;;;13.52;89.49
18850;BME280;4989;48.772;9.154;2022-11-03T16:04:06;97078.38;;;13.55;89.50
18850;BME280;4989;48.772;9.154;2022-11-03T16:09:08;97074.66;;;13.43;90.13
18850;BME280;4989;48.772;9.154;2022-11-03T16:14:11;97054.50;;;13.41;89.46
18850;BME280;4989;48.772;9.154;2022-11-03T16:19:16;97055.44;;;13.38;89.68
18850;BME280;4989;48.772;9.154;2022-11-03T16:24:18;97032.06;;;13.37;89.55
18850;BME280;4989;48.772;9.154;2022-11-03T16:29:21;97029.16;;;13.40;88.80
18850;BME280;4989;48.772;9.154;2022-11-03T16:34:23;97026.28;;;13.44;88.30
18850;BME280;4989;48.772;9.154;2022-11-03T16:39:25;97017.22;;;13.38;89.00
18850;BME280;4989;48.772;9.154;2022-11-03T16:44:28;97000.25;;;13.34;88.79
18850;BME280;4989;48.772;9.154;2022-11-03T16:49:31;97017.22;;;13.38;87.74
18850;BME280;4989;48.772;9.154;2022-11-03T16:54:34;96993.69;;;13.40;86.80
18850;BME280;4989;48.772;9.154;2022-11-03T16:59:36;96992.94;;;13.40;86.93
18850;BME280;4989;48.772;9.154;2022-11-03T17:04:40;96999.31;;;13.37;88.50
18850;BME280;4989;48.772;9.154;2022-11-03T17:09:42;96994.97;;;13.30;88.60
18850;BME280;4989;48.772;9.154;2022-11-03T17:14:44;97006.88;;;13.42;88.36
18850;BME280;4989;48.772;9.154;2022-11-03T17:19:47;97033.44;;;13.41;88.86
18850;BME280;4989;48.772;9.154;2022-11-03T17:24:49;97032.75;;;13.22;90.21
18850;BME280;4989;48.772;9.154;2022-11-03T17:29:55;97026.69;;;13.18;89.84
18850;BME280;4989;48.772;9.154;2022-11-03T17:34:59;97013.09;;;13.09;90.58
18850;BME280;4989;48.772;9.154;2022-11-03T17:40:01;97008.88;;;13.08;89.23
18850;BME280;4989;48.772;9.154;2022-11-03T17:45:07;97020.53;;;13.09;89.50
18850;BME280;4989;48.772;9.154;2022-11-03T17:50:14;97023.75;;;12.98;90.61
18850;BME280;4989;48.772;9.154;2022-11-03T17:55:21;96995.53;;;13.01;91.53
18850;BME280;4989;48.772;9.154;2022-11-03T18:00:24;96988.84;;;13.11;90.37
18850;BME280;4989;48.772;9.154;2022-11-03T18:05:29;96967.94;;;13.08;90.41
18850;BME280;4989;48.772;9.154;2022-11-03T18:10:36;96965.50;;;13.10;88.53
18850;BME280;4989;48.772;9.154;2022-11-03T18:15:39;96956.69;;;13.15;86.83
18850;BME280;4989;48.772;9.154;2022-11-03T18:20:46;96953.94;;;13.15;86.38
18850;BME280;4989;48.772;9.154;2022-11-03T18:25:54;96957.75;;;13.42;86.15
18850;BME280;4989;48.772;9.154;2022-11-03T18:30:57;96962.78;;;13.34;85.43
18850;BME280;4989;48.772;9.154;2022-11-03T18:36:02;96980.44;;;13.24;87.57
18850;BME280;4989;48.772;9.154;2022-11-03T18:41:16;96971.19;;;13.21;87.44
18850;BME280;4989;48.772;9.154;2022-11-03T18:46:48;96943.59;;;13.28;89.80
18850;BME280;4989;48.772;9.154;2022-11-03T18:51:55;96926.50;;;13.43;87.29
18850;BME280;4989;48.772;9.154;2022-11-03T18:57:04;96916.59;;;13.31;92.67
18850;BME280;4989;48.772;9.154;2022-11-03T19:07:31;96939.38;;;13.18;89.51
18850;BME280;4989;48.772;9.154;2022-11-03T19:12:36;96913.94;;;13.12;90.47
18850;BME280;4989;48.772;9.154;2022-11-03T19:17:40;96904.16;;;13.05;90.15
18850;BME280;4989;48.772;9.154;2022-11-03T19:22:44;96894.91;;;13.03;89.93
18850;BME280;4989;48.772;9.154;2022-11-03T19:27:47;96882.84;;;12.95;91.73
18850;BME280;4989;48.772;9.154;2022-11-03T19:32:52;96893.59;;;12.98;91.62
18850;BME280;4989;48.772;9.154;2022-11-03T19:38:05;96864.28;;;13.08;96.51
18850;BME280;4989;48.772;9.154;2022-11-03T19:43:12;96870.19;;;13.31;94.30
18850;BME280;4989;48.772;9.154;2022-11-03T19:48:14;96875.84;;;13.27;94.56
18850;BME280;4989;48.772;9.154;2022-11-03T19:53:27;96865.44;;;13.16;94.22
18850;BME280;4989;48.772;9.154;2022-11-03T19:58:30;96853.84;;;13.21;96.66
18850;BME280;4989;48.772;9.154;2022-11-03T20:03:32;96847.91;;;13.08;100.00
18850;BME280;4989;48.772;9.154;2022-11-03T20:08:36;96856.97;;;12.90;99.64
18850;BME280;4989;48.772;9.154;2022-11-03T20:13:41;96871.47;;;13.20;100.00
18850;BME280;4989;48.772;9.154;2022-11-03T20:18:44;96866.66;;;13.54;97.13
18850;BME280;4989;48.772;9.154;2022-11-03T20:23:49;96855.09;;;13.20;96.93
18850;BME280;4989;48.772;9.154;2022-11-03T20:28:53;96846.38;;;13.07;100.00
18850;BME280;4989;48.772;9.154;2022-11-03T20:33:57;96849.13;;;13.07;100.00
18850;BME280;4989;48.772;9.154;2022-11-03T20:39:00;96837.03;;;13.23;100.00
18850;BME280;4989;48.772;9.154;2022-11-03T20:44:03;96842.16;;;13.06;100.00
18850;BME280;4989;48.772;9.154;2022-11-03T20:49:06;96831.78;;;13.34;100.00
18850;BME280;4989;48.772;9.154;2022-11-03T20:54:18;96827.13;;;13.35;100.00
18850;BME280;4989;48.772;9.154;2022-11-03T20:59:20;96835.41;;;13.55;100.00
18850;BME280;4989;48.772;9.154;2022-11-03T21:04:27;96841.78;;;13.52;100.00
18850;BME280;4989;48.772;9.154;2022-11-03T21:09:31;96865.50;;;13.46;100.00
18850;BME280;4989;48.772;9.154;2022-11-03T21:14:33;96873.22;;;13.09;100.00
18850;BME280;4989;48.772;9.154;2022-11-03T21:19:37;96878.28;;;12.68;100.00
18850;BME280;4989;48.772;9.154;2022-11-03T21:24:58;96881.47;;;12.42;100.00
18850;BME280;4989;48.772;9.154;2022-11-03T21:30:00;96866.13;;;12.54;100.00
18850;BME280;4989;48.772;9.154;2022-11-03T21:35:04;96853.63;;;12.38;100.00
18850;BME280;4989;48.772;9.154;2022-11-03T21:40:08;96852.78;;;12.23;100.00
18850;BME280;4989;48.772;9.154;2022-11-03T21:45:11;96861.94;;;12.44;100.00
18850;BME280;4989;48.772;9.154;2022-11-03T21:50:14;96861.69;;;12.32;100.00
18850;BME280;4989;48.772;9.154;2022-11-03T21:55:17;96879.28;;;12.13;100.00
18850;BME280;4989;48.772;9.154;2022-11-03T22:00:19;96891.06;;;12.19;100.00
18850;BME280;4989;48.772;9.154;2022-11-03T22:05:22;96912.59;;;12.08;100.00
18850;BME280;4989;48.772;9.154;2022-11-03T22:10:24;96958.22;;;12.31;100.00
18850;BME280;4989;48.772;9.154;2022-11-03T22:15:26;96954.22;;;12.60;100.00
18850;BME280;4989;48.772;9.154;2022-11-03T22:20:48;96948.28;;;12.10;100.00
18850;BME280;4989;48.772;9.154;2022-11-03T22:26:14;96958.31;;;11.95;100.00
18850;BME280;4989;48.772;9.154;2022-11-03T22:31:36;96983.69;;;11.82;100.00
18850;BME280;4989;48.772;9.154;2022-11-03T22:36:44;96992.03;;;11.79;100.00
18850;BME280;4989;48.772;9.154;2022-11-03T22:41:46;96997.94;;;11.77;100.00
18850;BME280;4989;48.772;9.154;2022-11-03T22:47:08;97023.94;;;11.78;100.00
18850;BME280;4989;48.772;9.154;2022-11-03T22:52:13;97019.84;;;11.83;100.00
18850;BME280;4989;48.772;9.154;2022-11-03T22:57:15;97025.16;;;11.77;100.00
18850;BME280;4989;48.772;9.154;2022-11-03T23:02:18;97011.84;;;11.79;100.00
18850;BME280;4989;48.772;9.154;2022-11-03T23:07:21;97030.59;;;11.68;100.00
18850;BME280;4989;48.772;9.154;2022-11-03T23:12:31;97038.44;;;11.57;100.00
18850;BME280;4989;48.772;9.154;2022-11-03T23:17:33;97035.88;;;11.62;100.00
18850;BME280;4989;48.772;9.154;2022-11-03T23:22:57;97027.84;;;11.59;100.00
18850;BME280;4989;48.772;9.154;2022-11-03T23:27:59;97049.91;;;11.52;100.00
18850;BME280;4989;48.772;9.154;2022-11-03T23:33:02;97067.59;;;11.47;100.00
18850;BME280;4989;48.772;9.154;2022-11-03T23:38:04;97045.94;;;11.43;100.00
18850;BME280;4989;48.772;9.154;2022-11-03T23:43:07;97046.84;;;11.40;100.00
18850;BME280;4989;48.772;9.154;2022-11-03T23:48:10;97026.31;;;11.49;100.00
18850;BME280;4989;48.772;9.154;2022-11-03T23:53:31;97038.09;;;11.45;100.00
18850;BME280;4989;48.772;9.154;2022-11-03T23:58:33;97049.88;;;11.42;100.00
